createdAt,value
2023-10-01T00:01:42.070Z,65.71
2023-10-01T00:04:12.288Z,66.92
2023-10-01T00:06:41.455Z,57.60
2023-10-01T00:09:10.486Z,55.91
2023-10-01T00:11:39.559Z,57.66
2023-10-01T00:14:22.153Z,60.71
2023-10-01T00:16:54.295Z,63.09
2023-10-01T00:19:22.537Z,62.99
2023-10-01T00:21:50.465Z,59.11
2023-10-01T00:24:18.486Z,56.20
2023-10-01T00:26:47.697Z,58.01
2023-10-01T00:29:15.552Z,59.77
2023-10-01T00:31:43.470Z,61.57
2023-10-01T00:34:11.752Z,64.82
2023-10-01T00:36:39.847Z,63.51
2023-10-01T00:39:08.099Z,60.37
2023-10-01T00:41:35.888Z,54.93
2023-10-01T00:44:04.544Z,56.26
2023-10-01T00:46:33.746Z,58.80
2023-10-01T00:49:03.736Z,60.60
2023-10-01T00:51:33.505Z,63.65
2023-10-01T00:54:04.248Z,62.39
2023-10-01T00:56:32.788Z,57.73
2023-10-01T00:59:01.700Z,57.11
2023-10-01T01:01:29.887Z,59.15
2023-10-01T01:03:59.157Z,61.46
2023-10-01T01:06:37.799Z,64.45
2023-10-01T01:09:12.517Z,63.69
2023-10-01T01:11:40.537Z,57.20
2023-10-01T01:14:09.043Z,55.67
2023-10-01T01:16:37.084Z,56.51
2023-10-01T01:19:05.669Z,59.46
2023-10-01T01:21:34.673Z,59.83
2023-10-01T01:24:05.369Z,62.27
2023-10-01T01:26:33.657Z,67.73
2023-10-01T01:29:17.775Z,64.76
2023-10-01T01:31:47.473Z,56.39
2023-10-01T01:34:16.016Z,54.99
2023-10-01T01:36:44.804Z,56.42
2023-10-01T01:39:36.756Z,59.17
2023-10-01T01:42:07.075Z,61.84
2023-10-01T01:44:35.754Z,65.86
2023-10-01T01:47:08.030Z,66.09
2023-10-01T01:49:35.908Z,63.33
2023-10-01T01:52:06.881Z,56.67
2023-10-01T01:54:41.432Z,56.76
2023-10-01T01:57:15.799Z,59.66
2023-10-01T01:59:45.081Z,62.55
2023-10-01T02:02:13.568Z,63.14
2023-10-01T02:05:02.003Z,60.52
2023-10-01T02:07:32.594Z,56.34
2023-10-01T02:10:00.501Z,57.38
2023-10-01T02:12:31.376Z,61.00
2023-10-01T02:15:04.223Z,63.51
2023-10-01T02:17:32.692Z,62.12
2023-10-01T02:20:02.280Z,59.43
2023-10-01T02:22:33.253Z,60.08
2023-10-01T02:25:03.880Z,63.61
2023-10-01T02:27:43.142Z,62.53
2023-10-01T02:30:16.469Z,60.84
2023-10-01T02:32:51.343Z,56.95
2023-10-01T02:35:37.819Z,58.76
2023-10-01T02:38:30.471Z,61.34
2023-10-01T02:40:59.946Z,64.30
2023-10-01T02:43:37.304Z,62.63
2023-10-01T02:46:14.038Z,57.70
2023-10-01T02:48:46.569Z,58.83
2023-10-01T02:51:17.636Z,59.65
2023-10-01T02:54:07.340Z,59.45
2023-10-01T02:56:39.216Z,60.85
2023-10-01T02:59:16.357Z,69.34
2023-10-01T03:01:47.571Z,66.09
2023-10-01T03:04:18.336Z,59.24
2023-10-01T03:06:57.177Z,53.55
2023-10-01T03:09:36.098Z,54.62
2023-10-01T03:12:25.342Z,55.96
2023-10-01T03:15:18.339Z,57.50
2023-10-01T03:18:06.690Z,59.05
2023-10-01T03:20:39.134Z,60.15
2023-10-01T03:23:26.673Z,68.75
2023-10-01T03:26:00.905Z,67.66
2023-10-01T03:28:55.862Z,58.47
2023-10-01T03:31:25.899Z,53.77
2023-10-01T03:33:57.862Z,54.44
2023-10-01T03:36:28.663Z,56.05
2023-10-01T03:39:16.011Z,57.96
2023-10-01T03:42:03.829Z,60.36
2023-10-01T03:44:50.441Z,70.20
2023-10-01T03:47:20.673Z,67.14
2023-10-01T03:49:54.560Z,61.30
2023-10-01T03:52:22.950Z,54.69
2023-10-01T03:54:53.977Z,54.13
2023-10-01T03:57:24.344Z,55.36
2023-10-01T03:59:54.191Z,57.93
2023-10-01T04:02:29.332Z,59.05
2023-10-01T04:04:58.816Z,62.73
2023-10-01T04:07:45.126Z,66.06
2023-10-01T04:10:33.457Z,62.99
2023-10-01T04:13:13.894Z,61.11
2023-10-01T04:15:48.023Z,57.02
2023-10-01T04:18:17.249Z,60.06
2023-10-01T04:20:58.267Z,63.38
2023-10-01T04:23:37.616Z,63.81
2023-10-01T04:26:09.333Z,60.93
2023-10-01T04:28:45.828Z,59.06
2023-10-01T04:31:23.416Z,60.34
2023-10-01T04:33:52.018Z,64.34
2023-10-01T04:36:21.985Z,64.05
2023-10-01T04:38:53.507Z,60.03
2023-10-01T04:41:23.680Z,57.78
2023-10-01T04:44:01.383Z,59.53
2023-10-01T04:46:31.785Z,61.54
2023-10-01T04:49:15.624Z,65.74
2023-10-01T04:51:49.876Z,64.49
2023-10-01T04:54:22.816Z,60.80
2023-10-01T04:56:51.610Z,57.09
2023-10-01T04:59:22.776Z,59.40
2023-10-01T05:01:58.326Z,63.62
2023-10-01T05:04:28.573Z,63.34
2023-10-01T05:07:08.254Z,60.54
2023-10-01T05:09:37.317Z,57.54
2023-10-01T05:12:07.572Z,58.33
2023-10-01T05:14:53.606Z,62.62
2023-10-01T05:17:21.576Z,64.14
2023-10-01T05:19:51.826Z,60.88
2023-10-01T05:22:19.765Z,57.81
2023-10-01T05:24:50.577Z,59.02
2023-10-01T05:27:23.720Z,61.29
2023-10-01T05:29:51.546Z,65.91
2023-10-01T05:32:19.968Z,64.25
2023-10-01T05:34:48.661Z,60.03
2023-10-01T05:37:26.460Z,58.20
2023-10-01T05:40:12.403Z,61.47
2023-10-01T05:42:45.329Z,65.02
2023-10-01T05:45:20.242Z,62.79
2023-10-01T05:47:56.268Z,60.06
2023-10-01T05:50:30.408Z,57.24
2023-10-01T05:52:58.880Z,58.37
2023-10-01T05:55:26.931Z,63.07
2023-10-01T05:57:56.317Z,63.81
2023-10-01T06:00:29.416Z,61.26
2023-10-01T06:03:04.242Z,61.11
2023-10-01T06:05:45.400Z,60.35
2023-10-01T06:08:16.826Z,58.53
2023-10-01T06:11:06.766Z,58.40
2023-10-01T06:13:41.656Z,59.35
2023-10-01T06:16:19.389Z,64.76
2023-10-01T06:18:51.726Z,65.14
2023-10-01T06:21:26.473Z,60.45
2023-10-01T06:24:00.136Z,56.41
2023-10-01T06:26:44.773Z,55.11
2023-10-01T06:29:15.363Z,56.42
2023-10-01T06:31:54.066Z,60.13
2023-10-01T06:34:26.619Z,67.00
2023-10-01T06:37:01.011Z,66.87
2023-10-01T06:39:34.030Z,62.12
2023-10-01T06:42:21.105Z,56.97
2023-10-01T06:44:56.932Z,55.96
2023-10-01T06:47:29.429Z,59.30
2023-10-01T06:50:26.976Z,61.90
2023-10-01T06:52:58.969Z,69.45
2023-10-01T06:55:28.282Z,65.58
2023-10-01T06:57:57.478Z,59.58
2023-10-01T07:00:26.294Z,53.59
2023-10-01T07:02:55.162Z,53.73
2023-10-01T07:05:23.567Z,56.96
2023-10-01T07:07:51.707Z,59.41
2023-10-01T07:10:22.540Z,63.76
2023-10-01T07:13:00.400Z,63.26
2023-10-01T07:15:29.272Z,60.25
2023-10-01T07:17:59.486Z,55.28
2023-10-01T07:20:27.648Z,56.08
2023-10-01T07:22:58.019Z,58.30
2023-10-01T07:25:55.656Z,60.64
2023-10-01T07:28:24.049Z,63.36
2023-10-01T07:31:00.175Z,64.53
2023-10-01T07:33:32.647Z,61.70
2023-10-01T07:36:01.766Z,55.23
2023-10-01T07:38:34.080Z,53.37
2023-10-01T07:41:14.270Z,56.71
2023-10-01T07:43:44.463Z,57.70
2023-10-01T07:46:15.967Z,60.92
2023-10-01T07:48:48.718Z,65.88
2023-10-01T07:51:32.443Z,64.92
2023-10-01T07:54:03.840Z,58.73
2023-10-01T07:56:34.210Z,55.37
2023-10-01T07:59:25.589Z,57.45
2023-10-01T08:02:11.476Z,61.66
2023-10-01T08:04:48.575Z,62.94
2023-10-01T08:07:23.750Z,59.68
2023-10-01T08:09:59.083Z,57.17
2023-10-01T08:12:41.965Z,58.03
2023-10-01T08:15:29.132Z,61.18
2023-10-01T08:17:58.877Z,62.96
2023-10-01T08:20:33.516Z,59.85
2023-10-01T08:23:24.512Z,58.38
2023-10-01T08:25:58.124Z,60.58
2023-10-01T08:28:26.799Z,62.23
2023-10-01T08:31:25.212Z,63.80
2023-10-01T08:34:11.333Z,61.46
2023-10-01T08:36:45.228Z,55.04
2023-10-01T08:39:23.630Z,54.76
2023-10-01T08:41:53.001Z,57.32
2023-10-01T08:44:32.886Z,58.86
2023-10-01T08:47:23.612Z,58.88
2023-10-01T08:49:53.783Z,59.11
2023-10-01T08:52:27.605Z,62.45
2023-10-01T08:54:55.912Z,64.33
2023-10-01T08:57:46.865Z,58.74
2023-10-01T09:00:22.300Z,51.81
2023-10-01T09:03:12.711Z,52.44
2023-10-01T09:06:02.649Z,56.39
2023-10-01T09:08:47.062Z,57.86
2023-10-01T09:11:19.635Z,57.55
2023-10-01T09:14:00.061Z,58.77
2023-10-01T09:16:44.438Z,59.70
2023-10-01T09:19:31.885Z,61.67
2023-10-01T09:22:23.902Z,61.80
2023-10-01T09:25:08.749Z,57.48
2023-10-01T09:27:59.672Z,56.84
2023-10-01T09:30:33.468Z,58.74
2023-10-01T09:33:16.472Z,60.06
2023-10-01T09:35:52.203Z,60.76
2023-10-01T09:38:22.907Z,60.56
2023-10-01T09:41:05.292Z,59.33
2023-10-01T09:43:37.262Z,59.94
2023-10-01T09:46:07.973Z,60.63
2023-10-01T09:48:50.566Z,60.56
2023-10-01T09:51:23.729Z,60.32
2023-10-01T09:54:03.810Z,60.69
2023-10-01T09:56:46.780Z,60.90
2023-10-01T09:59:16.618Z,60.69
2023-10-01T10:01:46.677Z,59.94
2023-10-01T10:04:22.135Z,60.18
2023-10-01T10:07:01.525Z,59.80
2023-10-01T10:09:32.804Z,59.09
2023-10-01T10:12:03.688Z,58.35
2023-10-01T10:14:34.616Z,57.92
2023-10-01T10:17:17.623Z,56.89
2023-10-01T10:20:42.968Z,55.14
2023-10-01T10:23:16.533Z,57.60
2023-10-01T10:25:46.449Z,56.91
2023-10-01T10:28:27.152Z,55.93
2023-10-01T10:31:32.214Z,55.70
2023-10-01T10:34:27.070Z,54.99
2023-10-01T10:36:56.786Z,54.99
2023-10-01T10:39:48.550Z,54.61
2023-10-01T10:42:29.774Z,52.61
2023-10-01T10:45:25.253Z,51.92
2023-10-01T10:48:08.704Z,51.42
2023-10-01T10:50:50.564Z,50.68
2023-10-01T10:53:24.431Z,51.77
2023-10-01T10:56:08.991Z,52.01
2023-10-01T10:58:48.041Z,51.00
2023-10-01T11:01:24.279Z,50.89
2023-10-01T11:03:58.334Z,51.10
2023-10-01T11:06:41.905Z,50.52
2023-10-01T11:09:32.202Z,50.15
2023-10-01T11:12:02.247Z,49.92
2023-10-01T11:14:31.056Z,48.96
2023-10-01T11:16:59.042Z,48.69
2023-10-01T11:19:29.529Z,49.10
2023-10-01T11:22:00.496Z,48.64
2023-10-01T11:24:41.010Z,49.03
2023-10-01T11:27:18.903Z,49.33
2023-10-01T11:30:15.273Z,49.34
2023-10-01T11:33:05.554Z,48.92
2023-10-01T11:36:10.224Z,49.58
2023-10-01T11:38:44.632Z,49.66
2023-10-01T11:41:13.726Z,49.82
2023-10-01T11:44:00.210Z,49.70
2023-10-01T11:46:37.017Z,49.20
2023-10-01T11:49:21.585Z,48.55
2023-10-01T11:51:55.830Z,48.74
2023-10-01T11:54:49.720Z,47.99
2023-10-01T11:57:24.134Z,47.24
2023-10-01T11:59:56.986Z,47.24
2023-10-01T12:02:34.829Z,46.95
2023-10-01T12:05:09.241Z,46.16
2023-10-01T12:07:41.888Z,46.60
2023-10-01T12:10:34.074Z,46.32
2023-10-01T12:13:03.920Z,46.55
2023-10-01T12:15:41.933Z,46.05
2023-10-01T12:18:16.413Z,45.86
2023-10-01T12:20:49.331Z,45.39
2023-10-01T12:23:20.859Z,45.42
2023-10-01T12:25:54.233Z,45.14
2023-10-01T12:28:27.254Z,46.00
2023-10-01T12:31:01.769Z,45.79
2023-10-01T12:33:44.237Z,46.33
2023-10-01T12:36:33.998Z,46.36
2023-10-01T12:39:11.175Z,46.58
2023-10-01T12:41:55.393Z,46.54
2023-10-01T12:44:27.126Z,45.97
2023-10-01T12:46:57.160Z,45.90
2023-10-01T12:49:25.070Z,45.82
2023-10-01T12:51:56.088Z,45.86
2023-10-01T12:54:30.020Z,45.92
2023-10-01T12:57:14.073Z,45.93
2023-10-01T12:59:45.494Z,46.20
2023-10-01T13:02:25.294Z,45.97
2023-10-01T13:05:21.607Z,46.11
2023-10-01T13:07:55.151Z,46.19
2023-10-01T13:10:39.285Z,46.36
2023-10-01T13:13:09.280Z,46.58
2023-10-01T13:15:44.780Z,46.31
2023-10-01T13:18:30.295Z,46.12
2023-10-01T13:21:00.700Z,46.39
2023-10-01T13:23:30.734Z,46.44
2023-10-01T13:26:11.238Z,47.30
2023-10-01T13:28:55.067Z,47.68
2023-10-01T13:31:46.450Z,47.84
2023-10-01T13:34:23.145Z,47.62
2023-10-01T13:37:00.574Z,47.50
2023-10-01T13:39:39.193Z,48.18
2023-10-01T13:42:28.740Z,48.31
2023-10-01T13:45:15.781Z,48.56
2023-10-01T13:48:03.467Z,49.20
2023-10-01T13:50:49.794Z,49.28
2023-10-01T13:53:36.431Z,49.57
2023-10-01T13:56:23.668Z,49.54
2023-10-01T13:59:13.589Z,49.24
2023-10-01T14:02:00.552Z,48.69
2023-10-01T14:04:48.503Z,49.44
2023-10-01T14:07:36.541Z,49.01
2023-10-01T14:10:06.198Z,50.68
2023-10-01T14:12:43.262Z,51.00
2023-10-01T14:15:23.569Z,51.63
2023-10-01T14:17:58.003Z,52.18
2023-10-01T14:20:45.408Z,52.90
2023-10-01T14:23:30.681Z,53.23
2023-10-01T14:26:12.895Z,53.45
2023-10-01T14:28:50.906Z,53.51
2023-10-01T14:31:40.742Z,53.03
2023-10-01T14:34:10.666Z,53.78
2023-10-01T14:36:42.653Z,53.70
2023-10-01T14:39:13.863Z,54.26
2023-10-01T14:41:44.528Z,53.91
2023-10-01T14:44:16.633Z,53.75
2023-10-01T14:46:53.073Z,53.60
2023-10-01T14:49:24.541Z,54.03
2023-10-01T14:51:58.542Z,53.88
2023-10-01T14:54:30.753Z,54.55
2023-10-01T14:57:03.816Z,54.84
2023-10-01T14:59:33.731Z,54.85
2023-10-01T15:02:04.324Z,54.76
2023-10-01T15:04:37.925Z,54.61
2023-10-01T15:07:10.533Z,54.91
2023-10-01T15:09:39.775Z,54.71
2023-10-01T15:12:17.378Z,54.03
2023-10-01T15:15:11.054Z,54.66
2023-10-01T15:17:46.685Z,54.68
2023-10-01T15:20:29.781Z,54.90
2023-10-01T15:22:58.963Z,54.88
2023-10-01T15:25:34.481Z,54.15
2023-10-01T15:28:11.427Z,54.38
2023-10-01T15:30:46.280Z,54.03
2023-10-01T15:33:22.101Z,54.01
2023-10-01T15:35:55.303Z,53.63
2023-10-01T15:38:31.601Z,54.34
2023-10-01T15:41:01.508Z,54.11
2023-10-01T15:43:29.335Z,54.49
2023-10-01T15:46:20.473Z,54.59
2023-10-01T15:48:52.617Z,54.92
2023-10-01T15:51:28.794Z,55.16
2023-10-01T15:53:58.050Z,55.43
2023-10-01T15:56:36.295Z,55.68
2023-10-01T15:59:12.295Z,55.99
2023-10-01T16:01:52.568Z,56.22
2023-10-01T16:04:25.883Z,56.71
2023-10-01T16:07:05.276Z,56.98
2023-10-01T16:09:42.337Z,57.25
2023-10-01T16:12:13.638Z,57.58
2023-10-01T16:14:58.968Z,57.78
2023-10-01T16:17:34.201Z,58.20
2023-10-01T16:20:11.455Z,58.61
2023-10-01T16:22:48.889Z,58.91
2023-10-01T16:25:20.940Z,58.96
2023-10-01T16:27:49.423Z,59.14
2023-10-01T16:30:18.831Z,59.27
2023-10-01T16:32:54.676Z,59.20
2023-10-01T16:35:28.831Z,59.42
2023-10-01T16:38:07.345Z,59.59
2023-10-01T16:40:37.399Z,59.72
2023-10-01T16:43:15.570Z,59.88
2023-10-01T16:45:46.150Z,59.97
2023-10-01T16:48:25.986Z,60.17
2023-10-01T16:51:00.716Z,60.64
2023-10-01T16:53:35.094Z,60.59
2023-10-01T16:56:14.012Z,60.81
2023-10-01T16:58:49.586Z,60.65
2023-10-01T17:01:27.458Z,61.36
2023-10-01T17:04:11.307Z,61.46
2023-10-01T17:06:50.613Z,69.49
2023-10-01T17:09:49.430Z,62.60
2023-10-01T17:12:24.646Z,55.58
2023-10-01T17:14:54.413Z,56.70
2023-10-01T17:17:28.602Z,57.66
2023-10-01T17:20:16.238Z,58.10
2023-10-01T17:22:47.983Z,59.04
2023-10-01T17:25:17.877Z,59.70
2023-10-01T17:27:45.942Z,60.80
2023-10-01T17:30:19.540Z,61.44
2023-10-01T17:33:02.316Z,61.31
2023-10-01T17:35:30.614Z,67.13
2023-10-01T17:38:10.848Z,70.72
2023-10-01T17:40:48.352Z,65.19
2023-10-01T17:43:28.653Z,58.03
2023-10-01T17:46:04.764Z,54.36
2023-10-01T17:48:37.078Z,55.28
2023-10-01T17:51:06.316Z,56.04
2023-10-01T17:53:38.024Z,56.99
2023-10-01T17:56:22.333Z,58.31
2023-10-01T17:58:58.927Z,58.95
2023-10-01T18:01:27.638Z,59.68
2023-10-01T18:04:00.552Z,60.49
2023-10-01T18:06:32.149Z,66.89
2023-10-01T18:09:01.555Z,68.47
2023-10-01T18:11:30.443Z,61.61
2023-10-01T18:14:03.532Z,55.19
2023-10-01T18:16:31.925Z,53.38
2023-10-01T18:19:08.491Z,54.47
2023-10-01T18:21:40.935Z,55.01
2023-10-01T18:24:09.665Z,56.39
2023-10-01T18:26:39.156Z,57.11
2023-10-01T18:29:16.172Z,58.00
2023-10-01T18:31:50.036Z,59.24
2023-10-01T18:34:24.162Z,59.86
2023-10-01T18:36:56.550Z,60.52
2023-10-01T18:39:27.630Z,59.82
2023-10-01T18:41:58.606Z,69.52
2023-10-01T18:44:28.121Z,67.87
2023-10-01T18:46:57.581Z,61.69
2023-10-01T18:49:28.086Z,55.59
2023-10-01T18:51:56.483Z,54.15
2023-10-01T18:54:27.101Z,55.81
2023-10-01T18:57:01.222Z,56.61
2023-10-01T18:59:30.178Z,57.63
2023-10-01T19:02:01.149Z,59.22
2023-10-01T19:04:32.713Z,59.43
2023-10-01T19:07:02.341Z,60.56
2023-10-01T19:09:36.220Z,66.62
2023-10-01T19:12:04.683Z,67.79
2023-10-01T19:14:35.848Z,63.05
2023-10-01T19:17:04.299Z,55.77
2023-10-01T19:19:36.224Z,53.78
2023-10-01T19:22:12.259Z,54.99
2023-10-01T19:24:40.957Z,56.04
2023-10-01T19:27:15.761Z,57.46
2023-10-01T19:29:43.834Z,58.74
2023-10-01T19:32:14.465Z,59.95
2023-10-01T19:34:45.118Z,64.64
2023-10-01T19:37:15.651Z,69.32
2023-10-01T19:39:47.085Z,65.33
2023-10-01T19:42:18.440Z,59.34
2023-10-01T19:44:47.268Z,53.96
2023-10-01T19:47:17.110Z,54.09
2023-10-01T19:49:49.338Z,55.34
2023-10-01T19:52:27.553Z,56.76
2023-10-01T19:55:02.057Z,58.12
2023-10-01T19:57:41.591Z,59.39
2023-10-01T20:00:20.103Z,59.81
2023-10-01T20:02:48.336Z,60.24
2023-10-01T20:05:16.566Z,66.17
2023-10-01T20:07:48.156Z,67.13
2023-10-01T20:10:19.562Z,64.14
2023-10-01T20:12:51.019Z,56.89
2023-10-01T20:15:25.121Z,54.51
2023-10-01T20:18:20.457Z,56.80
2023-10-01T20:20:51.159Z,57.29
2023-10-01T20:23:21.621Z,59.33
2023-10-01T20:25:58.046Z,60.28
2023-10-01T20:28:29.259Z,67.58
2023-10-01T20:30:59.066Z,64.81
2023-10-01T20:33:30.918Z,61.81
2023-10-01T20:35:59.888Z,55.72
2023-10-01T20:38:30.226Z,54.70
2023-10-01T20:41:25.936Z,55.29
2023-10-01T20:43:58.210Z,56.44
2023-10-01T20:46:26.436Z,58.62
2023-10-01T20:49:00.897Z,60.18
2023-10-01T20:51:30.588Z,66.54
2023-10-01T20:54:04.924Z,67.40
2023-10-01T20:56:36.978Z,61.71
2023-10-01T20:59:15.696Z,57.05
2023-10-01T21:02:01.188Z,53.99
2023-10-01T21:04:34.289Z,54.95
2023-10-01T21:07:16.372Z,56.77
2023-10-01T21:09:48.959Z,58.46
2023-10-01T21:12:21.491Z,59.19
2023-10-01T21:15:08.801Z,60.07
2023-10-01T21:17:37.424Z,67.53
2023-10-01T21:20:12.097Z,66.77
2023-10-01T21:22:47.397Z,62.38
2023-10-01T21:25:27.750Z,56.17
2023-10-01T21:28:13.135Z,54.72
2023-10-01T21:30:46.410Z,56.18
2023-10-01T21:33:18.655Z,57.41
2023-10-01T21:35:47.306Z,59.31
2023-10-01T21:38:26.062Z,59.86
2023-10-01T21:40:55.191Z,67.09
2023-10-01T21:43:26.606Z,67.11
2023-10-01T21:46:01.887Z,61.82
2023-10-01T21:48:31.153Z,56.26
2023-10-01T21:51:03.608Z,55.31
2023-10-01T21:53:35.661Z,56.46
2023-10-01T21:56:12.128Z,58.29
2023-10-01T21:58:56.613Z,58.82
2023-10-01T22:01:46.004Z,59.89
2023-10-01T22:04:25.847Z,67.69
2023-10-01T22:06:56.740Z,67.10
2023-10-01T22:09:27.545Z,61.47
2023-10-01T22:11:58.021Z,56.07
2023-10-01T22:14:29.997Z,54.89
2023-10-01T22:16:58.092Z,55.88
2023-10-01T22:19:28.185Z,57.82
2023-10-01T22:21:59.216Z,59.15
2023-10-01T22:24:36.900Z,60.19
2023-10-01T22:27:14.064Z,66.90
2023-10-01T22:29:48.978Z,67.61
2023-10-01T22:32:18.646Z,63.58
2023-10-01T22:34:58.683Z,57.62
2023-10-01T22:37:30.754Z,55.80
2023-10-01T22:39:59.574Z,57.64
2023-10-01T22:42:35.235Z,59.27
2023-10-01T22:45:28.275Z,60.05
2023-10-01T22:48:02.431Z,66.87
2023-10-01T22:50:32.255Z,66.72
2023-10-01T22:53:03.076Z,61.59
2023-10-01T22:55:31.138Z,55.57
2023-10-01T22:58:03.510Z,54.55
2023-10-01T23:00:33.252Z,56.47
2023-10-01T23:03:03.002Z,57.30
2023-10-01T23:05:44.707Z,59.08
2023-10-01T23:08:13.446Z,60.17
2023-10-01T23:10:42.333Z,66.08
2023-10-01T23:13:12.843Z,66.55
2023-10-01T23:15:52.172Z,61.42
2023-10-01T23:18:25.790Z,55.86
2023-10-01T23:21:00.113Z,55.28
2023-10-01T23:23:34.628Z,55.45
2023-10-01T23:26:05.859Z,58.02
2023-10-01T23:28:38.043Z,59.57
2023-10-01T23:31:13.233Z,67.19
2023-10-01T23:33:46.821Z,67.34
2023-10-01T23:36:19.371Z,62.29
2023-10-01T23:38:57.126Z,57.12
2023-10-01T23:41:49.484Z,55.58
2023-10-01T23:44:25.501Z,56.45
2023-10-01T23:46:57.195Z,58.11
2023-10-01T23:49:30.129Z,60.19
2023-10-01T23:52:06.128Z,66.35
2023-10-01T23:54:39.176Z,66.27
2023-10-01T23:57:14.351Z,61.20
2023-10-01T23:59:50.089Z,55.63
